Airfield :
LOGIN :

Register | Disclaimer

   EN    FR    IT 

 










Legend :    VFR   Marginal VFR   IFR   Intensive IFR   Very Intensive IFR
Visi :
Ceiling :
>= 8 km
>= 3000ft
5 to 8 km
1000 to 3000 ft
1500m to 5 km
500 to 1000 ft
800 to 1500m
200 to 500 ft
< 800m
< 200 ft
Symbols :   Thunderstorms  Fog  Heavy snow  Heavy precipitations  Wind > 20 kt
SIGMETs :     Misc.  Thunderstorms  Icing  Turbulence  Mountain Waves  Volcanic Ashes







- Airport Elevation : 30 ft
- IATA code : CFN


EIDL - Donegal

CURRENT METAR :
  • 111830Z 16018KT 9999 -RA BKN024 10/08 Q1011

EXPIRED METARs :
  • 111800Z 14015KT 9999 SCT031 BKN038 10/07 Q1010
  • 111730Z 15015KT 9999 FEW027 10/07 Q1011
  • 111700Z 15016KT 9999 SCT021 BKN033 10/08 Q1011
  • 111630Z 16018KT 9999 OVC019 10/08 Q1011
  • 111600Z 17017KT 9999 OVC017 10/08 Q1012

TAF TAF EIDL
Valid from the 11 at 18:00 until the 11 at 21:00 UTC


111700Z 1118/1121 15018KT 9999 SCT020 BKN035
TEMPO 1118/1121 16022G32KT
TEMPO 1118/1121 5000 -RA BKN012
PROB30
TEMPO 1118/1121 RA BKN007
No reported NOTAMs for that airfield.



MET'MAP, your aeronautical weather chart ! - Copyright ORBIFLY December 2007 - Disclaimer

ORBIFLY MET'MAP TEAM :

Programming & Development : Alexandra Zaïnal
Concept & Development : Baudouin d'Aumeries
Co-Development & Prog : Marc-Olivier Méhu
Technical & hardware support : Manuel Goepfert

Contact : metmap@orbifly.com




SOURCES & CREDITS :

   NOAA